sensor_id;sensor_type;location;lat;lon;timestamp;pressure;altitude;pressure_sealevel;temperature;humidity
44359;BME280;30077;52.474;13.326;2023-03-23T00:01:54;99936.78;;;15.46;67.32
44359;BME280;30077;52.474;13.326;2023-03-23T00:06:54;99930.16;;;15.38;66.28
44359;BME280;30077;52.474;13.326;2023-03-23T00:11:54;99914.78;;;15.29;66.13
44359;BME280;30077;52.474;13.326;2023-03-23T00:16:56;99914.25;;;15.24;66.32
44359;BME280;30077;52.474;13.326;2023-03-23T00:21:57;99925.00;;;15.24;66.03
44359;BME280;30077;52.474;13.326;2023-03-23T00:27:00;99914.38;;;15.23;66.02
44359;BME280;30077;52.474;13.326;2023-03-23T00:32:03;99899.56;;;15.17;66.32
44359;BME280;30077;52.474;13.326;2023-03-23T00:37:03;99894.69;;;15.11;66.30
44359;BME280;30077;52.474;13.326;2023-03-23T00:42:04;99893.19;;;15.07;66.21
44359;BME280;30077;52.474;13.326;2023-03-23T00:47:04;99882.69;;;15.04;66.53
44359;BME280;30077;52.474;13.326;2023-03-23T00:52:05;99878.00;;;14.95;66.69
44359;BME280;30077;52.474;13.326;2023-03-23T00:57:05;99875.06;;;14.86;66.81
44359;BME280;30077;52.474;13.326;2023-03-23T01:02:06;99861.34;;;14.78;66.91
44359;BME280;30077;52.474;13.326;2023-03-23T01:07:06;99856.84;;;14.79;66.98
44359;BME280;30077;52.474;13.326;2023-03-23T01:12:08;99851.06;;;14.72;66.91
44359;BME280;30077;52.474;13.326;2023-03-23T01:17:08;99849.81;;;14.65;67.32
44359;BME280;30077;52.474;13.326;2023-03-23T01:22:08;99853.97;;;14.69;67.21
44359;BME280;30077;52.474;13.326;2023-03-23T01:27:08;99840.38;;;14.59;67.53
44359;BME280;30077;52.474;13.326;2023-03-23T01:32:08;99838.25;;;14.52;67.58
44359;BME280;30077;52.474;13.326;2023-03-23T01:37:08;99831.84;;;14.41;68.11
44359;BME280;30077;52.474;13.326;2023-03-23T01:42:09;99843.81;;;14.49;68.12
44359;BME280;30077;52.474;13.326;2023-03-23T01:47:09;99839.13;;;14.52;67.99
44359;BME280;30077;52.474;13.326;2023-03-23T01:52:18;99826.44;;;14.54;67.78
44359;BME280;30077;52.474;13.326;2023-03-23T01:57:21;99817.81;;;14.62;67.48
44359;BME280;30077;52.474;13.326;2023-03-23T02:02:22;99814.09;;;14.76;67.29
44359;BME280;30077;52.474;13.326;2023-03-23T02:07:23;99820.53;;;14.73;66.97
44359;BME280;30077;52.474;13.326;2023-03-23T02:12:24;99806.66;;;14.79;66.64
44359;BME280;30077;52.474;13.326;2023-03-23T02:17:46;99813.69;;;14.69;67.24
44359;BME280;30077;52.474;13.326;2023-03-23T02:22:51;99805.66;;;14.69;67.25
44359;BME280;30077;52.474;13.326;2023-03-23T02:28:05;99805.91;;;14.77;67.01
44359;BME280;30077;52.474;13.326;2023-03-23T02:38:22;99809.13;;;14.82;66.68
44359;BME280;30077;52.474;13.326;2023-03-23T02:43:25;99824.75;;;14.88;66.35
44359;BME280;30077;52.474;13.326;2023-03-23T02:48:28;99804.50;;;14.96;67.53
44359;BME280;30077;52.474;13.326;2023-03-23T02:53:29;99801.31;;;14.90;71.16
44359;BME280;30077;52.474;13.326;2023-03-23T02:58:30;99802.19;;;14.91;72.55
44359;BME280;30077;52.474;13.326;2023-03-23T03:03:30;99799.13;;;14.96;73.68
44359;BME280;30077;52.474;13.326;2023-03-23T03:13:45;99784.53;;;15.00;71.75
44359;BME280;30077;52.474;13.326;2023-03-23T03:18:58;99794.75;;;14.95;74.16
44359;BME280;30077;52.474;13.326;2023-03-23T03:24:01;99787.06;;;15.01;72.45
44359;BME280;30077;52.474;13.326;2023-03-23T03:29:02;99785.22;;;14.90;71.53
44359;BME280;30077;52.474;13.326;2023-03-23T03:34:03;99788.53;;;14.94;71.18
44359;BME280;30077;52.474;13.326;2023-03-23T03:39:04;99790.84;;;14.99;70.34
44359;BME280;30077;52.474;13.326;2023-03-23T03:44:07;99787.91;;;15.02;70.76
44359;BME280;30077;52.474;13.326;2023-03-23T03:49:08;99768.63;;;14.97;73.07
44359;BME280;30077;52.474;13.326;2023-03-23T03:54:08;99783.28;;;14.92;72.83
44359;BME280;30077;52.474;13.326;2023-03-23T03:59:10;99782.03;;;14.85;73.23
44359;BME280;30077;52.474;13.326;2023-03-23T04:04:10;99779.81;;;14.79;74.19
44359;BME280;30077;52.474;13.326;2023-03-23T04:09:10;99775.03;;;14.72;76.16
44359;BME280;30077;52.474;13.326;2023-03-23T04:14:11;99756.47;;;14.68;81.48
44359;BME280;30077;52.474;13.326;2023-03-23T04:19:12;99759.78;;;14.72;80.14
44359;BME280;30077;52.474;13.326;2023-03-23T04:24:12;99772.34;;;14.72;82.45
44359;BME280;30077;52.474;13.326;2023-03-23T04:29:12;99756.00;;;14.75;82.77
44359;BME280;30077;52.474;13.326;2023-03-23T04:34:13;99770.53;;;14.72;82.05
44359;BME280;30077;52.474;13.326;2023-03-23T04:39:14;99765.16;;;14.72;81.30
44359;BME280;30077;52.474;13.326;2023-03-23T04:44:15;99778.69;;;14.71;77.80
44359;BME280;30077;52.474;13.326;2023-03-23T04:49:17;99790.28;;;14.71;77.92
44359;BME280;30077;52.474;13.326;2023-03-23T04:54:20;99792.13;;;14.71;78.46
44359;BME280;30077;52.474;13.326;2023-03-23T04:59:21;99804.44;;;14.73;78.38
44359;BME280;30077;52.474;13.326;2023-03-23T05:04:21;99808.97;;;14.73;78.80
44359;BME280;30077;52.474;13.326;2023-03-23T05:09:22;99790.53;;;14.68;84.21
44359;BME280;30077;52.474;13.326;2023-03-23T05:14:22;99795.50;;;14.61;84.63
44359;BME280;30077;52.474;13.326;2023-03-23T05:19:23;99794.66;;;14.48;87.96
44359;BME280;30077;52.474;13.326;2023-03-23T05:24:23;99789.22;;;14.50;86.82
44359;BME280;30077;52.474;13.326;2023-03-23T05:29:24;99798.16;;;14.37;86.23
44359;BME280;30077;52.474;13.326;2023-03-23T05:34:26;99804.22;;;14.28;86.62
44359;BME280;30077;52.474;13.326;2023-03-23T05:39:26;99806.91;;;14.28;86.26
44359;BME280;30077;52.474;13.326;2023-03-23T05:44:26;99815.38;;;14.22;87.74
44359;BME280;30077;52.474;13.326;2023-03-23T05:49:27;99811.44;;;14.15;89.00
44359;BME280;30077;52.474;13.326;2023-03-23T05:54:28;99811.38;;;14.04;91.57
44359;BME280;30077;52.474;13.326;2023-03-23T05:59:29;99818.91;;;13.99;92.56
44359;BME280;30077;52.474;13.326;2023-03-23T06:04:29;99821.06;;;13.93;94.23
44359;BME280;30077;52.474;13.326;2023-03-23T06:09:29;99819.63;;;13.77;96.55
44359;BME280;30077;52.474;13.326;2023-03-23T06:14:30;99826.13;;;13.85;97.22
44359;BME280;30077;52.474;13.326;2023-03-23T06:19:31;99827.94;;;13.85;98.30
44359;BME280;30077;52.474;13.326;2023-03-23T06:24:31;99833.72;;;13.91;98.27
44359;BME280;30077;52.474;13.326;2023-03-23T06:29:33;99832.97;;;13.89;98.84
44359;BME280;30077;52.474;13.326;2023-03-23T06:34:34;99831.78;;;13.93;99.49
44359;BME280;30077;52.474;13.326;2023-03-23T06:39:34;99840.66;;;14.07;98.64
44359;BME280;30077;52.474;13.326;2023-03-23T06:44:35;99839.25;;;14.14;99.15
44359;BME280;30077;52.474;13.326;2023-03-23T06:49:35;99843.91;;;14.23;98.34
44359;BME280;30077;52.474;13.326;2023-03-23T06:54:38;99832.53;;;14.32;98.17
44359;BME280;30077;52.474;13.326;2023-03-23T06:59:38;99849.44;;;14.45;97.10
44359;BME280;30077;52.474;13.326;2023-03-23T07:04:39;99858.22;;;14.48;97.68
44359;BME280;30077;52.474;13.326;2023-03-23T07:09:40;99846.63;;;14.47;97.92
44359;BME280;30077;52.474;13.326;2023-03-23T07:14:41;99841.94;;;14.51;98.26
44359;BME280;30077;52.474;13.326;2023-03-23T07:19:41;99832.44;;;14.58;98.91
44359;BME280;30077;52.474;13.326;2023-03-23T07:24:41;99817.38;;;14.68;98.58
44359;BME280;30077;52.474;13.326;2023-03-23T07:29:41;99853.53;;;14.75;98.07
44359;BME280;30077;52.474;13.326;2023-03-23T07:34:41;99832.03;;;14.75;98.66
44359;BME280;30077;52.474;13.326;2023-03-23T07:39:42;99832.75;;;14.77;98.61
44359;BME280;30077;52.474;13.326;2023-03-23T07:44:42;99817.91;;;14.84;98.89
44359;BME280;30077;52.474;13.326;2023-03-23T07:49:43;99805.03;;;15.01;98.58
44359;BME280;30077;52.474;13.326;2023-03-23T07:54:45;99780.63;;;15.04;97.51
44359;BME280;30077;52.474;13.326;2023-03-23T07:59:45;99793.47;;;15.23;96.87
44359;BME280;30077;52.474;13.326;2023-03-23T08:04:47;99811.91;;;15.38;95.08
44359;BME280;30077;52.474;13.326;2023-03-23T08:09:47;99826.34;;;15.37;94.40
44359;BME280;30077;52.474;13.326;2023-03-23T08:14:47;99839.56;;;15.63;92.41
44359;BME280;30077;52.474;13.326;2023-03-23T08:19:48;99847.41;;;15.66;90.21
44359;BME280;30077;52.474;13.326;2023-03-23T08:24:48;99842.88;;;15.89;90.43
44359;BME280;30077;52.474;13.326;2023-03-23T08:29:48;99845.72;;;15.87;90.07
44359;BME280;30077;52.474;13.326;2023-03-23T08:34:48;99851.34;;;15.84;88.87
44359;BME280;30077;52.474;13.326;2023-03-23T08:39:52;99845.34;;;15.81;89.35
44359;BME280;30077;52.474;13.326;2023-03-23T08:44:53;99822.19;;;16.01;88.26
44359;BME280;30077;52.474;13.326;2023-03-23T08:49:54;99839.75;;;16.39;86.31
44359;BME280;30077;52.474;13.326;2023-03-23T08:54:54;99857.28;;;16.65;84.18
44359;BME280;30077;52.474;13.326;2023-03-23T08:59:55;99841.13;;;16.65;83.74
44359;BME280;30077;52.474;13.326;2023-03-23T09:04:59;99853.47;;;17.11;82.83
44359;BME280;30077;52.474;13.326;2023-03-23T09:10:01;99863.44;;;17.41;79.85
44359;BME280;30077;52.474;13.326;2023-03-23T09:15:05;99866.41;;;17.17;80.28
44359;BME280;30077;52.474;13.326;2023-03-23T09:20:17;99854.66;;;17.18;80.48
44359;BME280;30077;52.474;13.326;2023-03-23T09:25:19;99843.97;;;17.38;79.87
44359;BME280;30077;52.474;13.326;2023-03-23T09:30:22;99839.31;;;17.70;76.98
44359;BME280;30077;52.474;13.326;2023-03-23T09:35:23;99846.16;;;17.74;76.97
44359;BME280;30077;52.474;13.326;2023-03-23T09:40:24;99847.56;;;17.99;75.41
44359;BME280;30077;52.474;13.326;2023-03-23T09:45:32;99854.88;;;18.09;74.82
44359;BME280;30077;52.474;13.326;2023-03-23T09:50:34;99850.91;;;18.22;73.57
44359;BME280;30077;52.474;13.326;2023-03-23T09:55:37;99861.16;;;18.28;71.63
44359;BME280;30077;52.474;13.326;2023-03-23T10:00:39;99862.13;;;18.97;68.83
44359;BME280;30077;52.474;13.326;2023-03-23T10:05:41;99869.81;;;18.82;67.80
44359;BME280;30077;52.474;13.326;2023-03-23T10:10:52;99860.97;;;18.70;67.61
44359;BME280;30077;52.474;13.326;2023-03-23T10:15:55;99865.25;;;18.83;67.02
44359;BME280;30077;52.474;13.326;2023-03-23T10:20:56;99864.72;;;18.89;67.17
44359;BME280;30077;52.474;13.326;2023-03-23T10:30:57;99845.19;;;19.05;65.30
44359;BME280;30077;52.474;13.326;2023-03-23T10:36:01;99842.44;;;19.43;64.71
44359;BME280;30077;52.474;13.326;2023-03-23T10:41:04;99850.50;;;19.73;63.05
44359;BME280;30077;52.474;13.326;2023-03-23T10:51:12;99850.25;;;19.66;62.68
44359;BME280;30077;52.474;13.326;2023-03-23T10:56:22;99850.41;;;19.45;62.68
44359;BME280;30077;52.474;13.326;2023-03-23T11:01:32;99842.34;;;19.26;62.37
44359;BME280;30077;52.474;13.326;2023-03-23T11:06:34;99848.16;;;19.31;62.45
44359;BME280;30077;52.474;13.326;2023-03-23T11:11:40;99852.72;;;19.20;62.17
44359;BME280;30077;52.474;13.326;2023-03-23T11:16:49;99859.41;;;19.26;62.52
44359;BME280;30077;52.474;13.326;2023-03-23T11:21:51;99868.38;;;19.27;61.94
44359;BME280;30077;52.474;13.326;2023-03-23T11:26:52;99861.28;;;19.26;61.21
44359;BME280;30077;52.474;13.326;2023-03-23T11:37:07;99868.63;;;19.62;59.17
44359;BME280;30077;52.474;13.326;2023-03-23T11:42:12;99875.84;;;19.71;58.14
44359;BME280;30077;52.474;13.326;2023-03-23T11:47:16;99864.50;;;20.05;58.08
44359;BME280;30077;52.474;13.326;2023-03-23T11:52:32;99868.41;;;20.20;57.02
44359;BME280;30077;52.474;13.326;2023-03-23T11:57:34;99867.00;;;20.16;57.15
44359;BME280;30077;52.474;13.326;2023-03-23T12:18:50;99874.31;;;20.06;56.43
44359;BME280;30077;52.474;13.326;2023-03-23T12:24:01;99860.25;;;19.93;56.46
44359;BME280;30077;52.474;13.326;2023-03-23T12:29:13;99863.88;;;20.11;55.59
44359;BME280;30077;52.474;13.326;2023-03-23T12:34:31;99864.97;;;20.18;55.19
44359;BME280;30077;52.474;13.326;2023-03-23T12:39:42;99855.88;;;20.19;54.83
44359;BME280;30077;52.474;13.326;2023-03-23T12:44:49;99846.97;;;20.00;55.24
44359;BME280;30077;52.474;13.326;2023-03-23T12:50:01;99839.09;;;20.06;54.76
44359;BME280;30077;52.474;13.326;2023-03-23T13:00:15;99842.28;;;20.92;52.47
44359;BME280;30077;52.474;13.326;2023-03-23T13:10:25;99865.84;;;21.54;50.43
44359;BME280;30077;52.474;13.326;2023-03-23T13:21:06;99841.56;;;20.73;52.15
44359;BME280;30077;52.474;13.326;2023-03-23T13:26:11;99846.97;;;20.27;52.31
44359;BME280;30077;52.474;13.326;2023-03-23T13:31:16;99834.97;;;20.30;51.93
44359;BME280;30077;52.474;13.326;2023-03-23T13:36:17;99825.78;;;20.23;51.83
44359;BME280;30077;52.474;13.326;2023-03-23T13:41:19;99812.41;;;19.93;51.90
44359;BME280;30077;52.474;13.326;2023-03-23T13:46:25;99806.44;;;19.90;51.76
44359;BME280;30077;52.474;13.326;2023-03-23T14:01:47;99803.91;;;20.70;47.74
44359;BME280;30077;52.474;13.326;2023-03-23T14:06:48;99817.06;;;21.00;47.02
44359;BME280;30077;52.474;13.326;2023-03-23T14:11:50;99816.63;;;20.87;47.53
44359;BME280;30077;52.474;13.326;2023-03-23T14:17:04;99814.16;;;21.37;46.58
44359;BME280;30077;52.474;13.326;2023-03-23T14:22:05;99811.50;;;21.28;46.57
44359;BME280;30077;52.474;13.326;2023-03-23T14:27:17;99812.69;;;20.81;47.74
44359;BME280;30077;52.474;13.326;2023-03-23T14:32:19;99814.41;;;20.37;48.91
44359;BME280;30077;52.474;13.326;2023-03-23T14:37:24;99821.97;;;20.15;49.98
44359;BME280;30077;52.474;13.326;2023-03-23T14:42:28;99813.25;;;19.94;51.01
44359;BME280;30077;52.474;13.326;2023-03-23T14:47:30;99809.31;;;19.79;51.69
44359;BME280;30077;52.474;13.326;2023-03-23T14:52:35;99821.19;;;19.58;52.55
44359;BME280;30077;52.474;13.326;2023-03-23T14:57:36;99824.31;;;19.63;52.99
44359;BME280;30077;52.474;13.326;2023-03-23T15:02:40;99821.16;;;20.05;52.11
44359;BME280;30077;52.474;13.326;2023-03-23T15:07:41;99824.41;;;19.81;52.86
44359;BME280;30077;52.474;13.326;2023-03-23T15:12:44;99817.63;;;19.58;53.72
44359;BME280;30077;52.474;13.326;2023-03-23T15:17:45;99819.78;;;19.54;53.74
44359;BME280;30077;52.474;13.326;2023-03-23T15:22:46;99826.50;;;19.50;54.06
44359;BME280;30077;52.474;13.326;2023-03-23T15:27:50;99803.28;;;19.38;51.99
44359;BME280;30077;52.474;13.326;2023-03-23T15:32:54;99809.28;;;19.32;50.80
44359;BME280;30077;52.474;13.326;2023-03-23T15:48:16;99811.69;;;19.35;49.98
44359;BME280;30077;52.474;13.326;2023-03-23T15:53:25;99815.31;;;19.16;49.64
44359;BME280;30077;52.474;13.326;2023-03-23T15:58:26;99815.19;;;19.64;48.63
44359;BME280;30077;52.474;13.326;2023-03-23T16:03:27;99837.25;;;19.60;48.84
44359;BME280;30077;52.474;13.326;2023-03-23T16:08:29;99837.31;;;19.50;48.24
44359;BME280;30077;52.474;13.326;2023-03-23T16:13:29;99852.16;;;19.27;48.61
44359;BME280;30077;52.474;13.326;2023-03-23T16:18:29;99855.28;;;19.03;49.10
44359;BME280;30077;52.474;13.326;2023-03-23T16:23:30;99867.53;;;18.97;49.30
44359;BME280;30077;52.474;13.326;2023-03-23T16:28:30;99868.69;;;18.85;49.91
44359;BME280;30077;52.474;13.326;2023-03-23T16:33:31;99848.03;;;18.84;50.09
44359;BME280;30077;52.474;13.326;2023-03-23T16:38:31;99835.69;;;18.71;50.68
44359;BME280;30077;52.474;13.326;2023-03-23T16:43:31;99876.38;;;18.89;50.70
44359;BME280;30077;52.474;13.326;2023-03-23T16:48:31;99894.13;;;18.72;51.23
44359;BME280;30077;52.474;13.326;2023-03-23T16:53:31;99917.00;;;17.88;57.50
44359;BME280;30077;52.474;13.326;2023-03-23T16:58:32;99941.56;;;17.31;61.67
44359;BME280;30077;52.474;13.326;2023-03-23T17:03:32;99924.72;;;17.18;63.24
44359;BME280;30077;52.474;13.326;2023-03-23T17:08:32;99939.81;;;17.09;64.37
44359;BME280;30077;52.474;13.326;2023-03-23T17:13:32;99958.00;;;16.96;65.73
44359;BME280;30077;52.474;13.326;2023-03-23T17:18:33;99931.13;;;17.06;65.82
44359;BME280;30077;52.474;13.326;2023-03-23T17:23:33;99947.59;;;16.92;66.91
44359;BME280;30077;52.474;13.326;2023-03-23T17:28:34;99934.88;;;16.94;67.06
44359;BME280;30077;52.474;13.326;2023-03-23T17:33:34;99951.50;;;16.99;67.06
44359;BME280;30077;52.474;13.326;2023-03-23T17:38:34;99974.81;;;16.55;69.10
44359;BME280;30077;52.474;13.326;2023-03-23T17:43:36;99994.25;;;15.56;75.01
44359;BME280;30077;52.474;13.326;2023-03-23T17:48:38;99989.75;;;15.92;76.00
44359;BME280;30077;52.474;13.326;2023-03-23T17:53:38;99991.66;;;15.78;77.60
44359;BME280;30077;52.474;13.326;2023-03-23T17:58:38;99976.50;;;15.66;78.29
44359;BME280;30077;52.474;13.326;2023-03-23T18:03:39;99967.72;;;15.86;78.45
44359;BME280;30077;52.474;13.326;2023-03-23T18:08:39;99964.69;;;15.91;78.54
44359;BME280;30077;52.474;13.326;2023-03-23T18:13:39;99967.00;;;15.96;78.23
44359;BME280;30077;52.474;13.326;2023-03-23T18:18:39;99976.53;;;16.11;78.04
44359;BME280;30077;52.474;13.326;2023-03-23T18:23:40;99977.78;;;16.07;78.11
44359;BME280;30077;52.474;13.326;2023-03-23T18:28:40;99996.09;;;15.91;81.50
44359;BME280;30077;52.474;13.326;2023-03-23T18:33:40;100017.53;;;15.68;85.92
44359;BME280;30077;52.474;13.326;2023-03-23T18:38:45;100019.41;;;15.44;88.17
44359;BME280;30077;52.474;13.326;2023-03-23T18:43:46;100023.56;;;15.48;89.02
44359;BME280;30077;52.474;13.326;2023-03-23T18:48:46;100032.34;;;15.50;89.29
44359;BME280;30077;52.474;13.326;2023-03-23T18:53:46;100015.28;;;15.51;89.89
44359;BME280;30077;52.474;13.326;2023-03-23T18:58:46;100008.28;;;15.48;91.37
44359;BME280;30077;52.474;13.326;2023-03-23T19:03:46;100008.66;;;15.44;90.94
44359;BME280;30077;52.474;13.326;2023-03-23T19:08:47;100005.69;;;15.47;90.67
44359;BME280;30077;52.474;13.326;2023-03-23T19:13:48;100021.84;;;15.47;90.24
44359;BME280;30077;52.474;13.326;2023-03-23T19:18:48;100024.06;;;15.53;89.44
44359;BME280;30077;52.474;13.326;2023-03-23T19:23:48;100018.22;;;15.59;90.04
44359;BME280;30077;52.474;13.326;2023-03-23T19:28:48;100021.63;;;15.61;91.65
44359;BME280;30077;52.474;13.326;2023-03-23T19:33:49;100024.03;;;15.66;90.23
44359;BME280;30077;52.474;13.326;2023-03-23T19:38:50;100019.91;;;15.73;91.98
44359;BME280;30077;52.474;13.326;2023-03-23T19:43:50;100021.63;;;15.61;91.15
44359;BME280;30077;52.474;13.326;2023-03-23T19:48:50;100022.59;;;15.49;91.83
44359;BME280;30077;52.474;13.326;2023-03-23T19:53:50;100007.53;;;15.46;93.16
44359;BME280;30077;52.474;13.326;2023-03-23T19:58:51;100015.28;;;15.51;92.04
44359;BME280;30077;52.474;13.326;2023-03-23T20:03:51;100019.09;;;15.59;92.13
44359;BME280;30077;52.474;13.326;2023-03-23T20:08:51;100024.88;;;15.66;90.05
44359;BME280;30077;52.474;13.326;2023-03-23T20:13:51;100025.94;;;15.63;91.23
44359;BME280;30077;52.474;13.326;2023-03-23T20:18:52;100019.91;;;15.73;91.63
44359;BME280;30077;52.474;13.326;2023-03-23T20:23:53;100023.81;;;15.69;92.53
44359;BME280;30077;52.474;13.326;2023-03-23T20:28:54;100020.84;;;15.72;92.33
44359;BME280;30077;52.474;13.326;2023-03-23T20:33:55;100015.38;;;15.73;91.35
44359;BME280;30077;52.474;13.326;2023-03-23T20:39:00;99999.69;;;15.67;91.51
44359;BME280;30077;52.474;13.326;2023-03-23T20:44:00;100018.53;;;15.67;91.31
44359;BME280;30077;52.474;13.326;2023-03-23T20:49:01;100010.09;;;15.72;90.72
44359;BME280;30077;52.474;13.326;2023-03-23T20:54:01;100013.19;;;15.78;89.66
44359;BME280;30077;52.474;13.326;2023-03-23T20:59:02;100009.78;;;15.76;88.88
44359;BME280;30077;52.474;13.326;2023-03-23T21:04:02;100020.16;;;15.81;88.68
44359;BME280;30077;52.474;13.326;2023-03-23T21:09:02;100020.03;;;15.82;88.22
44359;BME280;30077;52.474;13.326;2023-03-23T21:14:03;100008.25;;;15.72;89.48
44359;BME280;30077;52.474;13.326;2023-03-23T21:19:03;99996.41;;;15.75;89.96
44359;BME280;30077;52.474;13.326;2023-03-23T21:24:04;99988.72;;;15.70;89.52
44359;BME280;30077;52.474;13.326;2023-03-23T21:29:05;99985.28;;;15.68;89.44
44359;BME280;30077;52.474;13.326;2023-03-23T21:34:09;99975.41;;;15.69;89.82
44359;BME280;30077;52.474;13.326;2023-03-23T21:39:09;99976.63;;;15.40;90.35
44359;BME280;30077;52.474;13.326;2023-03-23T21:44:09;99976.53;;;15.18;91.67
44359;BME280;30077;52.474;13.326;2023-03-23T21:49:09;99971.44;;;15.02;92.82
44359;BME280;30077;52.474;13.326;2023-03-23T21:54:12;99964.41;;;14.88;93.76
44359;BME280;30077;52.474;13.326;2023-03-23T21:59:13;99978.06;;;14.85;93.89
44359;BME280;30077;52.474;13.326;2023-03-23T22:04:13;99975.06;;;14.77;94.11
44359;BME280;30077;52.474;13.326;2023-03-23T22:09:13;99961.59;;;14.66;94.12
44359;BME280;30077;52.474;13.326;2023-03-23T22:14:14;99952.03;;;14.62;94.37
44359;BME280;30077;52.474;13.326;2023-03-23T22:19:14;99962.16;;;14.58;94.43
44359;BME280;30077;52.474;13.326;2023-03-23T22:24:15;99948.22;;;14.53;94.59
44359;BME280;30077;52.474;13.326;2023-03-23T22:29:15;99948.31;;;14.52;94.92
44359;BME280;30077;52.474;13.326;2023-03-23T22:34:15;99942.63;;;14.43;94.34
44359;BME280;30077;52.474;13.326;2023-03-23T22:39:16;99937.94;;;14.34;94.95
44359;BME280;30077;52.474;13.326;2023-03-23T22:44:16;99932.25;;;14.26;94.52
44359;BME280;30077;52.474;13.326;2023-03-23T22:49:19;99924.41;;;14.23;93.72
44359;BME280;30077;52.474;13.326;2023-03-23T22:54:20;99922.59;;;14.24;93.70
44359;BME280;30077;52.474;13.326;2023-03-23T22:59:20;99925.38;;;14.22;93.40
44359;BME280;30077;52.474;13.326;2023-03-23T23:04:20;99910.78;;;14.26;93.40
44359;BME280;30077;52.474;13.326;2023-03-23T23:09:21;99903.38;;;14.30;92.71
44359;BME280;30077;52.474;13.326;2023-03-23T23:14:21;99905.47;;;14.37;92.13
44359;BME280;30077;52.474;13.326;2023-03-23T23:19:21;99891.75;;;14.42;91.81
44359;BME280;30077;52.474;13.326;2023-03-23T23:24:21;99894.31;;;14.43;90.33
44359;BME280;30077;52.474;13.326;2023-03-23T23:29:21;99889.63;;;14.34;90.28
44359;BME280;30077;52.474;13.326;2023-03-23T23:34:22;99894.59;;;14.28;90.84
44359;BME280;30077;52.474;13.326;2023-03-23T23:39:22;99878.72;;;14.25;90.63
44359;BME280;30077;52.474;13.326;2023-03-23T23:44:22;99875.38;;;14.21;90.17
44359;BME280;30077;52.474;13.326;2023-03-23T23:49:22;99867.69;;;14.16;90.50
44359;BME280;30077;52.474;13.326;2023-03-23T23:54:27;99858.75;;;14.16;90.39
44359;BME280;30077;52.474;13.326;2023-03-23T23:59:30;99858.53;;;14.19;89.70
